Time;durP1;ratioP1;P1;durP2;ratioP2;P2;SDS_P1;SDS_P2;PMS_P1;PMS_P2;Temp;Humidity;BMP_temperature;BMP_pressure;BME280_temperature;BME280_humidity;BME280_pressure;Samples;Min_cycle;Max_cycle;Signal;HPM_P1;HPM_P2
2022/03/21 00:01:12;;;;;;;63.33;40.90;;;;;;;;;;5047642;28;20040;-74
2022/03/21 00:03:38;;;;;;;56.28;38.70;;;;;;;;;;5034259;28;20021;-74
2022/03/21 00:06:05;;;;;;;64.85;40.88;;;;;;;;;;5031944;28;20032;-74
2022/03/21 00:08:31;;;;;;;60.95;38.42;;;;;;;;;;5049083;28;20545;-74
2022/03/21 00:10:57;;;;;;;61.05;39.65;;;;;;;;;;5051165;28;20464;-74
2022/03/21 00:13:24;;;;;;;58.65;38.05;;;;;;;;;;5048511;28;20032;-74
2022/03/21 00:15:52;;;;;;;59.40;38.97;;;;;;;;;;5049640;28;20052;-74
2022/03/21 00:18:18;;;;;;;54.47;36.33;;;;;;;;;;5049564;28;20029;-74
2022/03/21 00:20:45;;;;;;;57.88;37.92;;;;;;;;;;5050760;28;20075;-73
2022/03/21 00:23:12;;;;;;;64.38;40.33;;;;;;;;;;5048314;28;20037;-73
2022/03/21 00:25:38;;;;;;;69.82;43.90;;;;;;;;;;5049692;28;20036;-73
2022/03/21 00:28:04;;;;;;;64.50;40.95;;;;;;;;;;5049721;28;20047;-74
2022/03/21 00:30:31;;;;;;;64.20;43.35;;;;;;;;;;5042278;28;20036;-74
2022/03/21 00:32:58;;;;;;;66.00;45.10;;;;;;;;;;5044382;28;20030;-73
2022/03/21 00:35:24;;;;;;;65.95;41.80;;;;;;;;;;5049758;28;20025;-73
2022/03/21 00:37:50;;;;;;;67.78;42.72;;;;;;;;;;5044262;28;20033;-73
2022/03/21 00:40:17;;;;;;;66.78;42.83;;;;;;;;;;5050503;28;20033;-72
2022/03/21 00:42:44;;;;;;;69.10;42.83;;;;;;;;;;5035099;28;20036;-73
2022/03/21 00:45:21;;;;;;;76.45;45.78;;;;;;;;;;5029682;28;20630;-73
2022/03/21 00:47:49;;;;;;;76.38;45.30;;;;;;;;;;5048329;28;20079;-75
2022/03/21 00:50:16;;;;;;;70.75;44.03;;;;;;;;;;5050986;28;20057;-74
2022/03/21 00:52:46;;;;;;;73.60;44.90;;;;;;;;;;5033099;28;20041;-73
2022/03/21 00:55:13;;;;;;;65.45;43.20;;;;;;;;;;5030591;28;20107;-74
2022/03/21 00:57:40;;;;;;;68.80;44.08;;;;;;;;;;5046596;28;20040;-74
2022/03/21 01:00:08;;;;;;;71.70;46.00;;;;;;;;;;5048172;28;20082;-73
2022/03/21 01:02:34;;;;;;;73.43;46.85;;;;;;;;;;5044258;28;20468;-74
2022/03/21 01:05:01;;;;;;;73.57;45.25;;;;;;;;;;5048355;28;20403;-74
2022/03/21 01:07:27;;;;;;;72.88;46.75;;;;;;;;;;5047028;28;20087;-74
2022/03/21 01:09:53;;;;;;;72.43;47.58;;;;;;;;;;5045494;28;20035;-74
2022/03/21 01:12:19;;;;;;;76.20;48.50;;;;;;;;;;5049414;28;20036;-74
2022/03/21 01:14:45;;;;;;;74.75;47.45;;;;;;;;;;5025087;28;20036;-73
2022/03/21 01:17:11;;;;;;;71.13;46.90;;;;;;;;;;5038845;28;20025;-74
2022/03/21 01:19:37;;;;;;;71.93;44.47;;;;;;;;;;5043538;28;20021;-73
2022/03/21 01:22:05;;;;;;;73.90;47.20;;;;;;;;;;5049047;28;20397;-74
2022/03/21 01:24:32;;;;;;;69.97;46.88;;;;;;;;;;5041117;28;20033;-73
2022/03/21 01:26:58;;;;;;;77.88;48.83;;;;;;;;;;5049702;28;20087;-74
2022/03/21 01:29:24;;;;;;;82.30;49.17;;;;;;;;;;5016984;28;20088;-73
2022/03/21 01:31:50;;;;;;;74.72;46.67;;;;;;;;;;5042442;28;20040;-74
2022/03/21 01:34:16;;;;;;;69.70;45.38;;;;;;;;;;5041042;28;20476;-74
2022/03/21 01:36:42;;;;;;;75.82;45.30;;;;;;;;;;5050319;28;20036;-74
2022/03/21 01:39:08;;;;;;;76.38;44.08;;;;;;;;;;5046661;28;20488;-74
2022/03/21 01:41:34;;;;;;;70.03;45.58;;;;;;;;;;5049927;28;20503;-74
2022/03/21 01:44:05;;;;;;;64.70;43.33;;;;;;;;;;5047891;28;20135;-74
2022/03/21 01:46:32;;;;;;;75.55;45.72;;;;;;;;;;5049710;28;20024;-73
2022/03/21 01:48:58;;;;;;;68.90;45.13;;;;;;;;;;5046536;28;20029;-74
2022/03/21 01:51:28;;;;;;;76.05;47.25;;;;;;;;;;5048828;28;20051;-74
2022/03/21 01:56:43;;;;;;;67.10;44.85;;;;;;;;;;5030703;28;20059;-74
2022/03/21 01:59:09;;;;;;;68.28;44.50;;;;;;;;;;5038328;28;20029;-73
2022/03/21 02:01:36;;;;;;;65.65;43.53;;;;;;;;;;5038408;28;20183;-74
2022/03/21 02:04:02;;;;;;;71.95;45.17;;;;;;;;;;5036961;28;20033;-74
2022/03/21 02:06:28;;;;;;;71.20;45.75;;;;;;;;;;5048803;28;20025;-74
2022/03/21 02:08:57;;;;;;;74.10;45.15;;;;;;;;;;5052840;28;20029;-74
2022/03/21 02:11:25;;;;;;;72.05;44.22;;;;;;;;;;5015645;28;20045;-74
2022/03/21 02:13:52;;;;;;;68.95;43.60;;;;;;;;;;5046838;28;20100;-73
2022/03/21 02:16:18;;;;;;;68.32;44.25;;;;;;;;;;5046396;28;20545;-74
2022/03/21 02:18:45;;;;;;;72.88;46.40;;;;;;;;;;5051697;28;20086;-74
2022/03/21 02:21:25;;;;;;;69.35;43.47;;;;;;;;;;5052768;28;20033;-74
2022/03/21 02:24:17;;;;;;;67.38;42.53;;;;;;;;;;5052690;28;20083;-74
2022/03/21 02:26:45;;;;;;;67.23;41.97;;;;;;;;;;5023312;28;20069;-74
2022/03/21 02:29:11;;;;;;;69.10;44.03;;;;;;;;;;5027113;28;20037;-74
2022/03/21 02:31:37;;;;;;;70.25;44.22;;;;;;;;;;5039915;28;20079;-73
2022/03/21 02:34:03;;;;;;;71.10;43.40;;;;;;;;;;5050111;28;20033;-73
2022/03/21 02:36:31;;;;;;;70.72;46.03;;;;;;;;;;5044862;28;20543;-71
2022/03/21 02:38:58;;;;;;;72.75;47.38;;;;;;;;;;5044767;28;20075;-75
2022/03/21 02:41:24;;;;;;;85.57;50.45;;;;;;;;;;5050244;28;20041;-76
2022/03/21 02:43:51;;;;;;;74.38;48.33;;;;;;;;;;5051456;28;20091;-72
2022/03/21 02:46:17;;;;;;;99.78;46.65;;;;;;;;;;5043977;28;20354;-73
2022/03/21 02:48:45;;;;;;;75.03;47.97;;;;;;;;;;5027809;28;20033;-73
2022/03/21 02:51:11;;;;;;;73.47;45.97;;;;;;;;;;5048098;28;20025;-73
2022/03/21 02:53:38;;;;;;;73.15;44.92;;;;;;;;;;5044655;28;20017;-73
2022/03/21 02:56:05;;;;;;;74.90;47.30;;;;;;;;;;5036845;28;20464;-73
2022/03/21 02:58:31;;;;;;;80.88;47.80;;;;;;;;;;5045585;28;20025;-73
2022/03/21 03:01:14;;;;;;;72.50;47.00;;;;;;;;;;5038419;28;20031;-73
2022/03/21 03:03:40;;;;;;;73.80;46.75;;;;;;;;;;5049765;28;20083;-73
2022/03/21 03:06:07;;;;;;;75.90;46.15;;;;;;;;;;5050148;28;20469;-74
2022/03/21 03:08:34;;;;;;;75.38;44.67;;;;;;;;;;5045737;28;20112;-73
2022/03/21 03:11:00;;;;;;;66.65;43.90;;;;;;;;;;5039055;28;20064;-74
2022/03/21 03:13:27;;;;;;;71.03;43.47;;;;;;;;;;5049338;28;20036;-73
2022/03/21 03:15:53;;;;;;;72.10;47.35;;;;;;;;;;5039799;28;20029;-73
2022/03/21 03:18:19;;;;;;;77.15;47.08;;;;;;;;;;5047759;28;20029;-74
2022/03/21 03:20:49;;;;;;;75.82;48.45;;;;;;;;;;5053134;28;20362;-74
2022/03/21 03:23:16;;;;;;;83.00;50.67;;;;;;;;;;5049234;28;20044;-73
2022/03/21 03:25:42;;;;;;;79.35;49.22;;;;;;;;;;5045214;28;20090;-74
2022/03/21 03:28:08;;;;;;;80.80;49.10;;;;;;;;;;5048754;28;20680;-74
2022/03/21 03:30:35;;;;;;;74.03;47.25;;;;;;;;;;5040352;28;20021;-74
2022/03/21 03:33:01;;;;;;;76.22;47.60;;;;;;;;;;5048516;28;20120;-74
2022/03/21 03:35:28;;;;;;;81.00;49.75;;;;;;;;;;5050068;28;20037;-73
2022/03/21 03:37:54;;;;;;;85.90;51.20;;;;;;;;;;5042383;28;20040;-73
2022/03/21 03:40:21;;;;;;;84.82;51.63;;;;;;;;;;5051306;28;20036;-74
2022/03/21 03:42:47;;;;;;;80.80;47.90;;;;;;;;;;5048308;28;20036;-73
2022/03/21 03:45:14;;;;;;;81.85;49.60;;;;;;;;;;5049860;28;20590;-73
2022/03/21 03:47:40;;;;;;;90.45;53.05;;;;;;;;;;5049251;28;20385;-73
2022/03/21 03:50:06;;;;;;;87.88;53.95;;;;;;;;;;5050582;28;20060;-73
2022/03/21 03:52:32;;;;;;;92.70;54.10;;;;;;;;;;5049911;28;20123;-73
2022/03/21 03:54:59;;;;;;;84.95;51.25;;;;;;;;;;5037663;28;20032;-73
2022/03/21 03:57:25;;;;;;;90.28;51.85;;;;;;;;;;5043325;28;20021;-74
2022/03/21 03:59:51;;;;;;;84.90;50.25;;;;;;;;;;5051383;28;20064;-74
2022/03/21 04:02:17;;;;;;;92.50;52.47;;;;;;;;;;5049387;28;20493;-74
2022/03/21 04:04:43;;;;;;;83.18;51.40;;;;;;;;;;5034065;28;20357;-74
2022/03/21 04:07:09;;;;;;;86.93;49.22;;;;;;;;;;5048354;28;20091;-74
2022/03/21 04:09:35;;;;;;;78.03;48.72;;;;;;;;;;5041529;28;20030;-74
2022/03/21 04:12:02;;;;;;;84.47;50.22;;;;;;;;;;5035141;28;20469;-74
2022/03/21 04:14:29;;;;;;;81.05;50.92;;;;;;;;;;5048465;28;20558;-74
2022/03/21 04:16:55;;;;;;;80.18;47.85;;;;;;;;;;5050894;28;20127;-74
2022/03/21 04:19:21;;;;;;;78.68;46.65;;;;;;;;;;5041628;28;20030;-74
2022/03/21 04:21:47;;;;;;;80.35;47.38;;;;;;;;;;5031001;28;20392;-74
2022/03/21 04:24:13;;;;;;;75.65;46.70;;;;;;;;;;5043381;28;20034;-74
2022/03/21 04:26:39;;;;;;;84.88;48.08;;;;;;;;;;5050588;28;20080;-74
2022/03/21 04:29:06;;;;;;;75.70;45.38;;;;;;;;;;5048451;28;20033;-74
2022/03/21 04:31:32;;;;;;;76.78;45.30;;;;;;;;;;5032532;28;20512;-74
2022/03/21 04:33:58;;;;;;;78.18;46.45;;;;;;;;;;5045946;28;20539;-74
2022/03/21 04:36:24;;;;;;;77.68;45.67;;;;;;;;;;5016784;28;20481;-74
2022/03/21 04:38:51;;;;;;;78.43;44.28;;;;;;;;;;5036702;28;20476;-73
2022/03/21 04:41:17;;;;;;;75.50;42.78;;;;;;;;;;5048815;28;20024;-74
2022/03/21 04:43:43;;;;;;;72.90;43.58;;;;;;;;;;5048234;28;20094;-74
2022/03/21 04:46:09;;;;;;;70.55;43.60;;;;;;;;;;5049128;28;20033;-74
2022/03/21 04:48:35;;;;;;;80.32;43.92;;;;;;;;;;5047558;28;20349;-74
2022/03/21 04:51:02;;;;;;;74.63;45.25;;;;;;;;;;5049578;28;20040;-74
2022/03/21 04:53:28;;;;;;;76.05;45.42;;;;;;;;;;5046188;28;20040;-74
2022/03/21 04:55:54;;;;;;;75.68;44.28;;;;;;;;;;5043201;28;20029;-74
2022/03/21 04:58:20;;;;;;;73.82;42.95;;;;;;;;;;5032375;28;20029;-74
2022/03/21 05:00:46;;;;;;;71.50;43.65;;;;;;;;;;5037614;28;20116;-74
2022/03/21 05:03:12;;;;;;;72.57;42.15;;;;;;;;;;5050023;28;20049;-74
2022/03/21 05:05:38;;;;;;;67.43;40.03;;;;;;;;;;5044222;28;20033;-74
2022/03/21 05:08:05;;;;;;;73.75;43.97;;;;;;;;;;5049710;28;20094;-74
2022/03/21 05:10:31;;;;;;;79.85;42.78;;;;;;;;;;5048325;28;20029;-74
2022/03/21 05:12:58;;;;;;;69.10;43.83;;;;;;;;;;5051238;28;20037;-74
2022/03/21 05:15:25;;;;;;;68.90;42.00;;;;;;;;;;5046035;28;20120;-74
2022/03/21 05:17:52;;;;;;;71.03;41.88;;;;;;;;;;5039365;28;20043;-75
2022/03/21 05:20:18;;;;;;;70.75;42.80;;;;;;;;;;5041390;28;20037;-74
2022/03/21 05:30:57;;;;;;;73.88;42.58;;;;;;;;;;5048893;28;20041;-75
2022/03/21 05:31:02;;;;;;;68.07;41.83;;;;;;;;;;5047027;28;20059;-74
2022/03/21 05:36:13;;;;;;;71.45;40.53;;;;;;;;;;5045220;28;20083;-75
2022/03/21 05:38:39;;;;;;;68.50;41.13;;;;;;;;;;5049800;28;20366;-75
2022/03/21 05:41:06;;;;;;;74.88;43.85;;;;;;;;;;5048119;28;20036;-74
2022/03/21 05:43:33;;;;;;;79.03;41.85;;;;;;;;;;5053746;28;20056;-75
2022/03/21 05:46:03;;;;;;;72.82;42.63;;;;;;;;;;5042415;28;20029;-75
2022/03/21 05:51:15;;;;;;;80.70;43.15;;;;;;;;;;5046911;28;20396;-75
2022/03/21 05:53:41;;;;;;;76.75;41.97;;;;;;;;;;5054016;28;20048;-75
2022/03/21 05:56:07;;;;;;;73.97;42.83;;;;;;;;;;5047268;28;20029;-75
2022/03/21 05:58:33;;;;;;;75.88;42.33;;;;;;;;;;5052494;28;20025;-75
2022/03/21 06:00:59;;;;;;;75.95;43.17;;;;;;;;;;5044470;28;20083;-75
2022/03/21 06:03:25;;;;;;;73.45;41.53;;;;;;;;;;5035647;28;20039;-75
2022/03/21 06:05:52;;;;;;;83.90;42.92;;;;;;;;;;5020742;28;20477;-76
2022/03/21 06:08:20;;;;;;;74.43;43.00;;;;;;;;;;5039842;28;21007;-74
2022/03/21 06:10:46;;;;;;;67.53;41.55;;;;;;;;;;5047363;28;20048;-73
2022/03/21 06:13:13;;;;;;;66.68;40.28;;;;;;;;;;5052348;28;20041;-75
2022/03/21 06:15:40;;;;;;;97.55;54.50;;;;;;;;;;5044820;28;20033;-77
2022/03/21 06:18:10;;;;;;;102.50;56.97;;;;;;;;;;5049528;28;20091;-77
2022/03/21 06:20:36;;;;;;;69.72;41.47;;;;;;;;;;5047901;28;20025;-73
2022/03/21 06:23:02;;;;;;;68.80;40.80;;;;;;;;;;5031642;28;20032;-73
2022/03/21 06:25:29;;;;;;;69.72;38.80;;;;;;;;;;5047287;28;20041;-74
2022/03/21 06:27:56;;;;;;;62.92;38.83;;;;;;;;;;5040247;28;20017;-73
2022/03/21 06:30:22;;;;;;;73.63;41.10;;;;;;;;;;5050451;28;20024;-73
2022/03/21 06:32:48;;;;;;;77.22;42.47;;;;;;;;;;5053315;28;20060;-73
2022/03/21 06:35:14;;;;;;;66.22;40.08;;;;;;;;;;5052248;28;20063;-73
2022/03/21 06:37:41;;;;;;;62.25;38.30;;;;;;;;;;5016610;28;20036;-73
2022/03/21 06:40:08;;;;;;;70.13;39.13;;;;;;;;;;5045292;28;20037;-73
2022/03/21 06:42:34;;;;;;;64.15;38.38;;;;;;;;;;5028610;28;20384;-73
2022/03/21 06:45:00;;;;;;;69.65;43.03;;;;;;;;;;5047215;28;20489;-74
2022/03/21 06:47:27;;;;;;;175.25;105.20;;;;;;;;;;5043650;28;20036;-73
2022/03/21 06:49:53;;;;;;;55.47;35.97;;;;;;;;;;5043080;28;20526;-73
2022/03/21 06:52:19;;;;;;;52.08;31.70;;;;;;;;;;5040004;28;20030;-73
2022/03/21 06:54:49;;;;;;;43.75;32.00;;;;;;;;;;5038177;28;20035;-73
2022/03/21 06:57:18;;;;;;;47.17;31.60;;;;;;;;;;5049711;28;20124;-73
2022/03/21 06:59:46;;;;;;;45.50;30.15;;;;;;;;;;5048894;28;20114;-73
2022/03/21 07:02:12;;;;;;;44.53;30.38;;;;;;;;;;5048492;28;20052;-73
2022/03/21 07:04:38;;;;;;;41.10;31.17;;;;;;;;;;5041607;28;20034;-73
2022/03/21 07:07:04;;;;;;;46.58;30.63;;;;;;;;;;5049289;28;20029;-74
2022/03/21 07:09:30;;;;;;;44.00;30.48;;;;;;;;;;5050530;28;20021;-74
2022/03/21 07:11:56;;;;;;;47.50;30.83;;;;;;;;;;5034006;28;20109;-74
2022/03/21 07:14:23;;;;;;;42.53;28.45;;;;;;;;;;5048083;28;20040;-74
2022/03/21 07:16:49;;;;;;;44.00;27.50;;;;;;;;;;5045889;28;20029;-72
2022/03/21 07:19:15;;;;;;;44.15;27.35;;;;;;;;;;5048012;28;20052;-72
2022/03/21 07:21:42;;;;;;;40.40;27.17;;;;;;;;;;5048051;28;20472;-72
2022/03/21 07:24:08;;;;;;;42.72;25.88;;;;;;;;;;5051055;28;20025;-72
2022/03/21 07:26:35;;;;;;;32.15;21.23;;;;;;;;;;5045162;28;20070;-72
2022/03/21 07:29:01;;;;;;;34.75;23.10;;;;;;;;;;5052612;28;20453;-72
2022/03/21 07:31:27;;;;;;;34.45;21.23;;;;;;;;;;5047397;28;20045;-72
2022/03/21 07:33:53;;;;;;;27.85;20.27;;;;;;;;;;5031486;28;20120;-71
2022/03/21 07:36:20;;;;;;;57.97;34.67;;;;;;;;;;5044590;28;20025;-74
2022/03/21 07:38:46;;;;;;;31.02;21.25;;;;;;;;;;5046810;28;20029;-73
2022/03/21 07:41:12;;;;;;;29.63;20.60;;;;;;;;;;5047885;28;20028;-72
2022/03/21 07:43:38;;;;;;;24.38;17.73;;;;;;;;;;5046730;28;20060;-73
2022/03/21 07:48:50;;;;;;;27.83;18.67;;;;;;;;;;5048762;28;20044;-73
2022/03/21 07:51:16;;;;;;;28.05;18.67;;;;;;;;;;5048639;28;20037;-73
2022/03/21 07:53:42;;;;;;;25.02;18.75;;;;;;;;;;5049705;28;20094;-73
2022/03/21 07:56:09;;;;;;;27.42;19.13;;;;;;;;;;5049695;28;20044;-73
2022/03/21 07:58:35;;;;;;;26.02;18.75;;;;;;;;;;5031998;28;20035;-73
2022/03/21 08:01:01;;;;;;;29.92;21.30;;;;;;;;;;5049752;28;20029;-73
2022/03/21 08:03:28;;;;;;;29.65;20.50;;;;;;;;;;5049167;28;20036;-73
2022/03/21 08:05:57;;;;;;;28.85;19.90;;;;;;;;;;5049360;28;20640;-73
2022/03/21 08:08:23;;;;;;;27.23;19.30;;;;;;;;;;5048364;28;20029;-73
2022/03/21 08:10:49;;;;;;;29.52;19.75;;;;;;;;;;5039772;28;20036;-73
2022/03/21 08:13:19;;;;;;;29.55;21.27;;;;;;;;;;5048504;28;20040;-71
2022/03/21 08:15:46;;;;;;;30.42;21.52;;;;;;;;;;5048903;28;20025;-72
2022/03/21 08:18:12;;;;;;;29.95;19.75;;;;;;;;;;5049916;28;20025;-73
2022/03/21 08:20:39;;;;;;;27.10;20.02;;;;;;;;;;5046560;28;20057;-72
2022/03/21 08:23:11;;;;;;;29.48;19.35;;;;;;;;;;5050820;28;20095;-73
2022/03/21 08:25:38;;;;;;;33.45;21.35;;;;;;;;;;5029089;28;20384;-73
2022/03/21 08:28:05;;;;;;;28.85;20.45;;;;;;;;;;5045502;28;20079;-73
2022/03/21 08:30:33;;;;;;;29.65;20.25;;;;;;;;;;5033598;28;20037;-72
2022/03/21 08:32:59;;;;;;;27.40;19.13;;;;;;;;;;5044792;28;20029;-73
2022/03/21 08:35:26;;;;;;;29.75;20.02;;;;;;;;;;5050944;28;20134;-73
2022/03/21 08:37:52;;;;;;;34.10;18.58;;;;;;;;;;5035331;28;20092;-73
2022/03/21 08:40:18;;;;;;;31.13;18.15;;;;;;;;;;5049031;28;20068;-73
2022/03/21 08:42:45;;;;;;;28.42;19.60;;;;;;;;;;5032628;28;20025;-73
2022/03/21 08:45:12;;;;;;;23.98;17.33;;;;;;;;;;5041780;28;20481;-73
2022/03/21 08:47:38;;;;;;;25.70;18.90;;;;;;;;;;5048411;28;20029;-73
2022/03/21 08:50:05;;;;;;;28.48;18.08;;;;;;;;;;5050007;28;20021;-73
2022/03/21 08:52:32;;;;;;;28.83;18.02;;;;;;;;;;5049087;28;20029;-72
2022/03/21 08:54:58;;;;;;;26.70;18.00;;;;;;;;;;5028671;28;20049;-73
2022/03/21 08:57:24;;;;;;;28.77;17.77;;;;;;;;;;5049427;28;20076;-73
2022/03/21 08:59:52;;;;;;;25.70;16.88;;;;;;;;;;5048951;28;20441;-74
2022/03/21 09:02:18;;;;;;;27.20;17.15;;;;;;;;;;5030322;28;20034;-72
2022/03/21 09:04:45;;;;;;;24.30;17.23;;;;;;;;;;5048492;28;20087;-72
2022/03/21 09:07:13;;;;;;;25.33;17.15;;;;;;;;;;5050856;28;20124;-72
2022/03/21 09:09:39;;;;;;;24.30;17.92;;;;;;;;;;5049711;28;20032;-72
2022/03/21 09:12:05;;;;;;;26.63;16.90;;;;;;;;;;5048444;28;20060;-72
2022/03/21 09:14:31;;;;;;;30.00;17.33;;;;;;;;;;5047533;28;20041;-72
2022/03/21 09:16:57;;;;;;;56.80;39.05;;;;;;;;;;5043004;28;20026;-72
2022/03/21 09:19:24;;;;;;;28.90;19.08;;;;;;;;;;5052230;28;20083;-73
2022/03/21 09:21:50;;;;;;;26.27;16.90;;;;;;;;;;5044907;28;20112;-73
2022/03/21 09:24:16;;;;;;;19.73;14.68;;;;;;;;;;5052390;28;20179;-73
2022/03/21 09:26:42;;;;;;;22.02;16.88;;;;;;;;;;5051918;28;20033;-73
2022/03/21 09:29:09;;;;;;;21.63;15.63;;;;;;;;;;5052008;28;20045;-73
2022/03/21 09:31:36;;;;;;;22.13;15.55;;;;;;;;;;5053478;28;20675;-73
2022/03/21 09:34:02;;;;;;;25.42;15.95;;;;;;;;;;5050808;28;20086;-73
2022/03/21 09:36:28;;;;;;;22.90;16.65;;;;;;;;;;5052798;28;20021;-73
2022/03/21 09:38:54;;;;;;;21.55;16.52;;;;;;;;;;5052597;28;20029;-72
2022/03/21 09:41:28;;;;;;;23.35;16.08;;;;;;;;;;5054469;28;20017;-72
2022/03/21 09:43:55;;;;;;;23.15;16.42;;;;;;;;;;5050355;28;20118;-72
2022/03/21 09:46:21;;;;;;;22.88;16.42;;;;;;;;;;5049843;28;20021;-71
2022/03/21 09:48:49;;;;;;;21.02;15.18;;;;;;;;;;5050149;28;20036;-73
2022/03/21 09:51:20;;;;;;;21.23;16.02;;;;;;;;;;5036736;28;20392;-72
2022/03/21 09:53:46;;;;;;;20.50;15.90;;;;;;;;;;5052523;28;20472;-72
2022/03/21 09:56:13;;;;;;;21.17;15.10;;;;;;;;;;5051465;28;20303;-72
2022/03/21 09:58:39;;;;;;;20.88;14.85;;;;;;;;;;5049336;28;20036;-72
2022/03/21 10:01:05;;;;;;;19.58;15.75;;;;;;;;;;5052093;28;20025;-72
2022/03/21 10:03:33;;;;;;;25.02;16.65;;;;;;;;;;5052968;28;20041;-72
2022/03/21 10:06:00;;;;;;;28.02;19.58;;;;;;;;;;5042196;28;20075;-73
2022/03/21 10:08:27;;;;;;;32.75;21.67;;;;;;;;;;5049631;28;20190;-72
2022/03/21 10:10:55;;;;;;;21.05;16.05;;;;;;;;;;5046528;28;20039;-74
2022/03/21 10:13:22;;;;;;;22.95;17.30;;;;;;;;;;5049482;28;20028;-75
2022/03/21 10:15:48;;;;;;;20.92;16.00;;;;;;;;;;5046118;28;20028;-73
2022/03/21 10:18:14;;;;;;;20.52;17.00;;;;;;;;;;5050844;28;20488;-73
2022/03/21 10:20:41;;;;;;;21.83;17.05;;;;;;;;;;5052625;28;20029;-73
2022/03/21 10:23:23;;;;;;;21.83;16.15;;;;;;;;;;5035110;28;20034;-73
2022/03/21 10:25:49;;;;;;;24.40;16.05;;;;;;;;;;5034107;28;20499;-72
2022/03/21 10:28:34;;;;;;;21.52;15.48;;;;;;;;;;5051238;28;20033;-73
2022/03/21 10:31:01;;;;;;;19.85;15.43;;;;;;;;;;5046960;28;20045;-72
2022/03/21 10:33:27;;;;;;;18.65;14.32;;;;;;;;;;5049334;28;20029;-72
2022/03/21 10:35:53;;;;;;;20.65;15.32;;;;;;;;;;5053326;28;20384;-72
2022/03/21 10:38:35;;;;;;;16.80;13.88;;;;;;;;;;5038763;28;20060;-73
2022/03/21 10:41:11;;;;;;;21.15;14.13;;;;;;;;;;5052155;28;20025;-72
2022/03/21 10:43:37;;;;;;;19.98;14.18;;;;;;;;;;5040554;28;20053;-73
2022/03/21 10:46:04;;;;;;;15.38;11.90;;;;;;;;;;5044832;28;20030;-72
2022/03/21 10:48:35;;;;;;;16.77;12.50;;;;;;;;;;5053411;28;20096;-72
2022/03/21 10:51:02;;;;;;;17.63;12.93;;;;;;;;;;5049577;28;20041;-72
2022/03/21 10:53:28;;;;;;;18.42;14.15;;;;;;;;;;5048458;28;20137;-73
2022/03/21 10:56:04;;;;;;;17.00;13.43;;;;;;;;;;5050322;28;20033;-73
2022/03/21 10:58:39;;;;;;;19.52;12.90;;;;;;;;;;5033028;28;20065;-73
2022/03/21 11:01:12;;;;;;;15.10;11.40;;;;;;;;;;5039367;28;20029;-73
2022/03/21 11:03:42;;;;;;;13.45;10.57;;;;;;;;;;5050241;28;20060;-72
2022/03/21 11:06:11;;;;;;;21.08;12.23;;;;;;;;;;5033575;28;20119;-72
2022/03/21 11:08:38;;;;;;;19.70;12.55;;;;;;;;;;5040825;28;20028;-72
2022/03/21 11:11:05;;;;;;;19.20;13.38;;;;;;;;;;5027207;28;20492;-73
2022/03/21 11:13:31;;;;;;;16.35;13.73;;;;;;;;;;5032903;28;20037;-73
2022/03/21 11:15:58;;;;;;;19.35;13.70;;;;;;;;;;5040330;28;20033;-72
2022/03/21 11:18:25;;;;;;;18.55;13.35;;;;;;;;;;5051476;28;20025;-72
2022/03/21 11:20:52;;;;;;;17.60;13.77;;;;;;;;;;5034418;28;20430;-72
2022/03/21 11:23:19;;;;;;;19.52;14.13;;;;;;;;;;5025470;28;20120;-72
2022/03/21 11:25:52;;;;;;;17.92;12.38;;;;;;;;;;5048918;28;20090;-73
2022/03/21 11:28:27;;;;;;;19.13;12.75;;;;;;;;;;5048418;28;20025;-72
2022/03/21 11:30:56;;;;;;;15.52;12.50;;;;;;;;;;5027591;28;20033;-73
2022/03/21 11:33:38;;;;;;;16.58;13.20;;;;;;;;;;5034397;28;20048;-73
2022/03/21 11:36:06;;;;;;;16.67;12.75;;;;;;;;;;5049034;28;20025;-72
2022/03/21 11:38:34;;;;;;;21.08;13.02;;;;;;;;;;5045343;28;20381;-72
2022/03/21 11:41:22;;;;;;;16.13;12.73;;;;;;;;;;5048565;28;20028;-71
2022/03/21 11:44:15;;;;;;;19.27;13.70;;;;;;;;;;5106746;27;20415;-72
2022/03/21 11:46:47;;;;;;;16.17;12.73;;;;;;;;;;5096846;28;20041;-72
2022/03/21 11:49:19;;;;;;;18.23;13.75;;;;;;;;;;5088809;28;20115;-72
2022/03/21 11:51:55;;;;;;;20.80;14.02;;;;;;;;;;5082588;28;20040;-72
2022/03/21 11:54:29;;;;;;;19.08;12.82;;;;;;;;;;5080094;28;20024;-72
2022/03/21 11:56:55;;;;;;;17.52;13.57;;;;;;;;;;5092048;28;20111;-72
2022/03/21 11:59:35;;;;;;;20.58;13.82;;;;;;;;;;5085672;28;20119;-72
2022/03/21 12:02:03;;;;;;;19.52;13.20;;;;;;;;;;5088475;28;20036;-72
2022/03/21 12:04:30;;;;;;;19.20;13.32;;;;;;;;;;5093038;28;20036;-72
2022/03/21 12:06:59;;;;;;;24.60;14.07;;;;;;;;;;5096131;28;20029;-72
2022/03/21 12:09:38;;;;;;;17.13;13.52;;;;;;;;;;5080090;28;20041;-73
2022/03/21 12:12:05;;;;;;;21.05;15.15;;;;;;;;;;5076798;28;20046;-72
2022/03/21 12:14:41;;;;;;;20.35;13.18;;;;;;;;;;5076663;28;20094;-73
2022/03/21 12:17:13;;;;;;;21.20;14.43;;;;;;;;;;5084783;28;20024;-72
2022/03/21 12:19:48;;;;;;;18.20;13.38;;;;;;;;;;5076853;28;20023;-73
2022/03/21 12:22:29;;;;;;;24.58;14.18;;;;;;;;;;5096445;28;20032;-72
2022/03/21 12:24:58;;;;;;;19.83;14.57;;;;;;;;;;5087019;28;20039;-72
2022/03/21 12:27:31;;;;;;;20.48;14.18;;;;;;;;;;5076225;28;20020;-72
2022/03/21 12:30:16;;;;;;;20.45;13.30;;;;;;;;;;5085429;28;20027;-73
2022/03/21 12:32:52;;;;;;;21.85;13.00;;;;;;;;;;5076022;28;20047;-73
2022/03/21 12:35:39;;;;;;;19.17;13.75;;;;;;;;;;5088932;28;20031;-73
2022/03/21 12:38:17;;;;;;;21.23;13.40;;;;;;;;;;5090896;28;20043;-73
2022/03/21 12:40:50;;;;;;;17.65;13.00;;;;;;;;;;5095702;28;20025;-73
2022/03/21 12:43:20;;;;;;;22.40;13.88;;;;;;;;;;5088187;28;20392;-73
2022/03/21 12:45:49;;;;;;;18.20;13.40;;;;;;;;;;5073628;28;20024;-73
2022/03/21 12:48:17;;;;;;;21.80;13.98;;;;;;;;;;5086350;28;20039;-73
2022/03/21 12:50:43;;;;;;;25.80;14.00;;;;;;;;;;5086208;28;20470;-73
2022/03/21 12:53:10;;;;;;;26.13;14.27;;;;;;;;;;5086766;28;20040;-73
2022/03/21 12:55:37;;;;;;;20.88;14.20;;;;;;;;;;5069453;28;20033;-73
2022/03/21 12:58:10;;;;;;;21.95;14.60;;;;;;;;;;5072712;28;20115;-73
2022/03/21 13:00:38;;;;;;;23.13;14.40;;;;;;;;;;5067359;28;20052;-73
2022/03/21 13:03:23;;;;;;;23.75;14.18;;;;;;;;;;5072966;28;20381;-72
2022/03/21 13:11:27;;;;;;;20.52;14.70;;;;;;;;;;5073959;28;20044;-73
2022/03/21 13:13:55;;;;;;;20.42;14.40;;;;;;;;;;5071352;28;20064;-73
2022/03/21 13:16:21;;;;;;;20.90;14.30;;;;;;;;;;5073865;28;20036;-73
2022/03/21 13:18:48;;;;;;;20.65;13.93;;;;;;;;;;5068887;28;20021;-73
2022/03/21 13:21:14;;;;;;;21.88;14.00;;;;;;;;;;5071837;28;20044;-73
2022/03/21 13:23:43;;;;;;;21.10;13.68;;;;;;;;;;5071868;28;20033;-73
2022/03/21 13:26:16;;;;;;;25.42;13.75;;;;;;;;;;5073619;28;20364;-73
2022/03/21 13:28:43;;;;;;;24.30;15.20;;;;;;;;;;5066245;28;20055;-73
2022/03/21 13:31:19;;;;;;;21.70;14.90;;;;;;;;;;5071003;28;20120;-73
2022/03/21 13:33:52;;;;;;;38.03;17.58;;;;;;;;;;5073860;28;20109;-73
2022/03/21 13:36:19;;;;;;;24.27;14.75;;;;;;;;;;5065344;28;20165;-73
2022/03/21 13:38:45;;;;;;;28.30;15.32;;;;;;;;;;5073139;28;20074;-71
2022/03/21 13:41:15;;;;;;;25.95;13.95;;;;;;;;;;5072163;28;20021;-72
2022/03/21 13:43:41;;;;;;;25.83;14.98;;;;;;;;;;5065428;28;20052;-72
2022/03/21 13:46:08;;;;;;;24.23;15.50;;;;;;;;;;5064227;28;20029;-72
2022/03/21 13:48:38;;;;;;;17.05;13.75;;;;;;;;;;5056759;28;20098;-72
2022/03/21 13:51:17;;;;;;;21.00;14.23;;;;;;;;;;5052844;28;20111;-72
2022/03/21 13:53:44;;;;;;;21.55;15.15;;;;;;;;;;5070498;28;20040;-72
2022/03/21 13:56:12;;;;;;;19.08;14.40;;;;;;;;;;5072888;28;20078;-72
2022/03/21 13:58:39;;;;;;;19.40;13.55;;;;;;;;;;5088435;28;20024;-72
2022/03/21 14:01:18;;;;;;;22.45;15.25;;;;;;;;;;5072262;28;20244;-71
2022/03/21 14:03:47;;;;;;;18.90;13.27;;;;;;;;;;5067435;28;20042;-72
2022/03/21 14:06:13;;;;;;;19.58;14.00;;;;;;;;;;5056055;28;20044;-71
2022/03/21 14:08:39;;;;;;;24.85;14.43;;;;;;;;;;5070010;28;20060;-72
2022/03/21 14:11:15;;;;;;;21.55;14.68;;;;;;;;;;5062610;28;20036;-72
2022/03/21 14:13:42;;;;;;;21.50;12.38;;;;;;;;;;5067852;28;20033;-72
2022/03/21 14:16:08;;;;;;;18.30;13.05;;;;;;;;;;5068583;28;20028;-72
2022/03/21 14:18:52;;;;;;;19.30;12.07;;;;;;;;;;5069575;28;20535;-72
2022/03/21 14:21:18;;;;;;;18.65;13.38;;;;;;;;;;5071935;28;20052;-72
2022/03/21 14:23:44;;;;;;;19.05;13.18;;;;;;;;;;5072107;28;20120;-72
2022/03/21 14:28:55;;;;;;;21.17;14.07;;;;;;;;;;5059997;28;20408;-71
2022/03/21 14:31:21;;;;;;;20.67;14.18;;;;;;;;;;5074128;28;20033;-72
2022/03/21 14:33:47;;;;;;;20.13;13.98;;;;;;;;;;5063235;28;20082;-71
2022/03/21 14:36:13;;;;;;;20.00;13.77;;;;;;;;;;5059291;28;20037;-71
2022/03/21 14:38:40;;;;;;;26.02;13.70;;;;;;;;;;5069675;28;20149;-71
2022/03/21 14:41:08;;;;;;;18.70;13.70;;;;;;;;;;5092122;28;20107;-71
2022/03/21 14:43:34;;;;;;;19.10;12.57;;;;;;;;;;5068564;28;20059;-71
2022/03/21 14:46:01;;;;;;;20.85;13.38;;;;;;;;;;5057434;28;20105;-71